Luke Air Force Base
KLUF : rendu visible

Aérodrome :











RETROUVEZ-NOUS SUR...

 
LOGIN :

S'inscrire | Disclaimer

   EN    FR    IT 

 









Légende :    VFR   VFR Marginal   IFR   IFR Intensif   IFR Très Intensif
Visi : 
Plafond : 
>= 8 km
>= 3000ft
5 à 8 km
1000 à 3000 ft
1500m à 5 km
500 à 1000 ft
800 à 1500m
200 à 500 ft
< 800m
< 200 ft
Symboles :   Orages  Brouillard  Fortes neiges  Fortes précipitations  Vent > 20 kt






- Altitude de l'aérodrome : 1085 ft


KLUF - Luke Air Force Base

DERNIER METAR :
  • 201058Z AUTO 01006KT 10SM CLR 09/01 A3005 RMK AO2 SLP171 T00940006 $

METARs EXPIRÉS :
  • 200958Z AUTO 04005KT 10SM CLR 10/01 A3005 RMK AO2 SLP171 T01010012 $
  • 200858Z AUTO 01007KT 10SM CLR 11/02 A3005 RMK AO2 SLP171 T01060017 51006 $

TAF TAF KLUF
Valide du 20 à 04h jusqu'au 21 à 10h UTC


200400Z 2004/2110 VRB06KT 9999 SKC QNH2999INS
BECMG 2021/2022 VRB06KT 9999 BKN250 QNH3004INS
BECMG 2108/2109 08012G20KT 9999 SCT100 BKN150 QNH3004INS TX26/2023Z TN08/2014Z



MET'MAP, la Météo Aéronautique d'un coup d'oeil ! - Copyright ORBIFLY Décembre 2007 - Disclaimer

ORBIFLY MET'MAP TEAM :

Programmation & Développement : Alexandra Zaïnal
Sur une idée originale de : Baudouin d'Aumeries
Assistance à la programmation : Marc-Olivier Méhu
Soutien technique & logistique : Manuel Goepfert

Contact : metmap@orbifly.com




SOURCES & CREDITS :

   NOAA       Earth
Advisory